• Join FlightAware (Why Join?)
  • Login
  • US Flag 
04:21AM EST


 

Airport Tracker/Info


-or-


 

Live Flight TrackerFlight Track Log ✈ PDT4155 ✈ 11-May-2014 ✈ KBGM - KPHL

Flight Track Log - Related Links

Times and Time Zones

All times are in EDT time to prevent confusion due to time zone crossing. See the PDT4155 flight status page for this flight to view local times or setup timezone preferences in your user account.

Time Position Orientation Groundspeed Altitude Reporting Facility
EDT Latitude Longitude Course Direction KTS MPH feet Rate Location/Type
06:54AM 42.0464 -75.9266 173° South  Level Estimated
06:55AM 41.9924 -75.9090 180° South  Level Estimated
06:56AM 41.9370 -75.9146 184° South  Level FlightAware Approximate
06:57AM 41.8815 -75.9201 184° South  Level FlightAware Approximate
06:58AM 41.8261 -75.9257 184° South  Level FlightAware Approximate
06:59AM 41.7707 -75.9313 184° South  Level FlightAware Approximate
07:00AM 41.7171 -75.9112 154° Southeast  Level Estimated
07:01AM 41.6636 -75.8912 160° South  Level Estimated
07:02AM 41.6101 -75.8712 159° South  Level Estimated
07:03AM 41.5601 -75.8388 154° Southeast  Level FlightAware Approximate
07:04AM 41.5064 -75.8193 153° Southeast  Level Estimated
07:05AM 41.4528 -75.7999 161° South  Level Estimated
07:06AM 41.4025 -75.7683 155° Southeast  Level FlightAware Approximate
07:07AM 41.3522 -75.7368 155° Southeast  Level FlightAware Approximate
07:08AM 41.3019 -75.7053 155° Southeast  Level FlightAware Approximate
07:09AM 41.2480 -75.6874 162° South  Level Estimated
07:10AM 41.1958 -75.6619 160° South  Level FlightAware Approximate
07:11AM 41.1436 -75.6365 160° South  Level FlightAware Approximate
07:11AM 41.1058 -75.6203 160° South 245 282 8,000  Level New York Center
07:12AM 41.0914 -75.6111 160° South  Level FlightAware Approximate
07:12AM 41.0297 -75.5928 165° South 238 274 8,000  Level New York Center
07:13AM 41.0392 -75.5857 160° South  Level FlightAware Approximate
07:13AM 40.9631 -75.5936 181° South 239 275 8,000  Level New York Center
07:14AM 40.9850 -75.5694 159° South  Level Estimated
07:14AM 40.8964 -75.5942 180° South 235 270 8,000  Level New York Center
07:15AM 40.9308 -75.5531 163° South  Level Estimated
07:15AM 40.8339 -75.5953 181° South 234 269 7,800  Level New York Center
07:16AM 40.8786 -75.5279 160° South  Level FlightAware Approximate
07:17AM 40.7167 -75.5833 176° South 250 288 6,000  Level Philadelphia TRACON
07:18AM 40.6333 -75.5833 180° South 252 290 5,000 -480 Descending Philadelphia TRACON
07:19AM 40.5667 -75.5833 180° South 236 272 5,000  Level Philadelphia TRACON
07:20AM 40.5000 -75.5833 180° South 239 275 5,000  Level Philadelphia TRACON
07:21AM 40.4333 -75.5667 169° South 238 274 5,000  Level Philadelphia TRACON
07:22AM 40.3833 -75.5167 143° Southeast 244 281 5,000  Level Philadelphia TRACON
07:23AM 40.3167 -75.4667 150° Southeast 243 280 5,000  Level Philadelphia TRACON
07:24AM 40.2667 -75.4167 143° Southeast 243 280 5,000 -300 Level Philadelphia TRACON
07:25AM 40.2000 -75.3667 150° Southeast 245 282 4,400 -840 Descending Philadelphia TRACON
07:26AM 40.1500 -75.3167 143° Southeast 246 283 3,400 -660 Descending Philadelphia TRACON
07:27AM 40.0833 -75.2500 143° Southeast 224 258 3,000 -240 Descending Philadelphia TRACON
07:28AM 40.0333 -75.2167 153° Southeast 198 228 3,000  Level Philadelphia TRACON
07:29AM 39.9833 -75.1667 143° Southeast 198 228 3,000 -180 Level Philadelphia TRACON
07:30AM 39.9500 -75.1500 159° South 197 227 2,700 -900 Descending Philadelphia TRACON
07:31AM 39.9000 -75.1667 194° South 134 154 1,300 -1,080 Descending Philadelphia TRACON
07:32AM 39.8833 -75.2000 237° Southwest 125 144 300 -1,020 Descending Philadelphia TRACON
07:34AM 39.8667 -75.2333 180° South  Level FlightAware Approximate
07:41AM 39.8722 -75.2409 314° West  Level Estimated